sensor_id;sensor_type;location;lat;lon;timestamp;temperature;humidity
63771;DHT22;60282;43.862;18.430;2023-04-03T00:01:56;8.20;99.90
63771;DHT22;60282;43.862;18.430;2023-04-03T00:04:21;8.20;99.90
63771;DHT22;60282;43.862;18.430;2023-04-03T00:06:47;8.20;99.90
63771;DHT22;60282;43.862;18.430;2023-04-03T00:09:13;8.20;99.90
63771;DHT22;60282;43.862;18.430;2023-04-03T00:11:39;8.30;99.90
63771;DHT22;60282;43.862;18.430;2023-04-03T00:14:04;8.30;99.90
63771;DHT22;60282;43.862;18.430;2023-04-03T00:18:56;8.40;99.90
63771;DHT22;60282;43.862;18.430;2023-04-03T00:21:22;8.40;99.90
63771;DHT22;60282;43.862;18.430;2023-04-03T00:23:48;8.40;99.90
63771;DHT22;60282;43.862;18.430;2023-04-03T00:26:14;8.30;99.90
63771;DHT22;60282;43.862;18.430;2023-04-03T00:28:39;8.30;99.90
63771;DHT22;60282;43.862;18.430;2023-04-03T00:31:05;8.30;99.90
63771;DHT22;60282;43.862;18.430;2023-04-03T00:33:31;8.30;99.90
63771;DHT22;60282;43.862;18.430;2023-04-03T00:35:57;8.40;99.90
63771;DHT22;60282;43.862;18.430;2023-04-03T00:38:22;8.20;99.90
63771;DHT22;60282;43.862;18.430;2023-04-03T00:40:49;8.10;99.90
63771;DHT22;60282;43.862;18.430;2023-04-03T00:43:18;8.10;99.90
63771;DHT22;60282;43.862;18.430;2023-04-03T00:45:47;8.20;99.90
63771;DHT22;60282;43.862;18.430;2023-04-03T00:48:20;8.20;99.90
63771;DHT22;60282;43.862;18.430;2023-04-03T00:50:48;8.20;99.90
63771;DHT22;60282;43.862;18.430;2023-04-03T00:53:21;8.30;99.90
63771;DHT22;60282;43.862;18.430;2023-04-03T00:55:48;8.30;99.90
63771;DHT22;60282;43.862;18.430;2023-04-03T00:58:17;8.40;99.90
63771;DHT22;60282;43.862;18.430;2023-04-03T01:00:48;8.40;99.90
63771;DHT22;60282;43.862;18.430;2023-04-03T01:03:17;8.40;99.90
63771;DHT22;60282;43.862;18.430;2023-04-03T01:05:42;8.40;99.90
63771;DHT22;60282;43.862;18.430;2023-04-03T01:08:08;8.40;99.90
63771;DHT22;60282;43.862;18.430;2023-04-03T01:10:34;8.40;99.90
63771;DHT22;60282;43.862;18.430;2023-04-03T01:13:00;8.40;99.90
63771;DHT22;60282;43.862;18.430;2023-04-03T01:15:27;8.40;99.90
63771;DHT22;60282;43.862;18.430;2023-04-03T01:18:00;8.40;99.90
63771;DHT22;60282;43.862;18.430;2023-04-03T01:28:06;8.40;99.90
63771;DHT22;60282;43.862;18.430;2023-04-03T01:33:25;8.40;99.90
63771;DHT22;60282;43.862;18.430;2023-04-03T01:35:51;8.40;99.90
63771;DHT22;60282;43.862;18.430;2023-04-03T01:38:17;8.40;99.90
63771;DHT22;60282;43.862;18.430;2023-04-03T01:40:42;8.40;99.90
63771;DHT22;60282;43.862;18.430;2023-04-03T01:43:08;8.40;99.90
63771;DHT22;60282;43.862;18.430;2023-04-03T01:48:00;8.40;99.90
63771;DHT22;60282;43.862;18.430;2023-04-03T01:50:26;8.40;99.90
63771;DHT22;60282;43.862;18.430;2023-04-03T01:52:52;8.40;99.90
63771;DHT22;60282;43.862;18.430;2023-04-03T01:55:19;8.40;99.90
63771;DHT22;60282;43.862;18.430;2023-04-03T01:57:44;8.40;99.90
63771;DHT22;60282;43.862;18.430;2023-04-03T02:00:11;8.40;99.90
63771;DHT22;60282;43.862;18.430;2023-04-03T02:02:37;8.40;99.90
63771;DHT22;60282;43.862;18.430;2023-04-03T02:05:03;8.50;99.90
63771;DHT22;60282;43.862;18.430;2023-04-03T02:07:33;8.50;99.90
63771;DHT22;60282;43.862;18.430;2023-04-03T02:09:58;8.50;99.90
63771;DHT22;60282;43.862;18.430;2023-04-03T02:12:24;8.40;99.90
63771;DHT22;60282;43.862;18.430;2023-04-03T02:14:50;8.30;99.90
63771;DHT22;60282;43.862;18.430;2023-04-03T02:17:16;8.40;99.90
63771;DHT22;60282;43.862;18.430;2023-04-03T02:19:42;8.40;99.90
63771;DHT22;60282;43.862;18.430;2023-04-03T02:22:07;7.00;99.90
63771;DHT22;60282;43.862;18.430;2023-04-03T02:24:33;8.40;99.90
63771;DHT22;60282;43.862;18.430;2023-04-03T02:27:00;8.40;99.90
63771;DHT22;60282;43.862;18.430;2023-04-03T02:29:25;8.40;99.90
63771;DHT22;60282;43.862;18.430;2023-04-03T02:31:51;8.40;99.90
63771;DHT22;60282;43.862;18.430;2023-04-03T02:34:17;8.40;99.90
63771;DHT22;60282;43.862;18.430;2023-04-03T02:36:43;8.50;99.90
63771;DHT22;60282;43.862;18.430;2023-04-03T02:41:36;8.40;99.90
63771;DHT22;60282;43.862;18.430;2023-04-03T02:44:04;8.40;99.90
63771;DHT22;60282;43.862;18.430;2023-04-03T02:46:31;8.40;99.90
63771;DHT22;60282;43.862;18.430;2023-04-03T02:48:57;8.40;99.90
63771;DHT22;60282;43.862;18.430;2023-04-03T02:51:23;8.40;99.90
63771;DHT22;60282;43.862;18.430;2023-04-03T02:53:49;8.30;99.90
63771;DHT22;60282;43.862;18.430;2023-04-03T02:56:17;8.30;99.90
63771;DHT22;60282;43.862;18.430;2023-04-03T03:01:20;8.30;99.90
63771;DHT22;60282;43.862;18.430;2023-04-03T03:03:46;8.20;99.90
63771;DHT22;60282;43.862;18.430;2023-04-03T03:06:14;8.20;99.90
63771;DHT22;60282;43.862;18.430;2023-04-03T03:11:09;8.20;99.90
63771;DHT22;60282;43.862;18.430;2023-04-03T03:13:35;8.20;99.90
63771;DHT22;60282;43.862;18.430;2023-04-03T03:16:05;8.20;99.90
63771;DHT22;60282;43.862;18.430;2023-04-03T03:18:31;8.20;99.90
63771;DHT22;60282;43.862;18.430;2023-04-03T03:21:00;8.20;99.90
63771;DHT22;60282;43.862;18.430;2023-04-03T03:23:28;8.20;99.90
63771;DHT22;60282;43.862;18.430;2023-04-03T03:25:56;8.10;99.90
63771;DHT22;60282;43.862;18.430;2023-04-03T03:28:22;8.10;99.90
63771;DHT22;60282;43.862;18.430;2023-04-03T03:30:48;8.10;99.90
63771;DHT22;60282;43.862;18.430;2023-04-03T03:33:14;8.00;99.90
63771;DHT22;60282;43.862;18.430;2023-04-03T03:35:40;6.30;99.90
63771;DHT22;60282;43.862;18.430;2023-04-03T03:38:06;7.90;99.90
63771;DHT22;60282;43.862;18.430;2023-04-03T03:40:32;7.90;99.90
63771;DHT22;60282;43.862;18.430;2023-04-03T03:42:58;7.80;99.90
63771;DHT22;60282;43.862;18.430;2023-04-03T03:45:23;7.80;99.90
63771;DHT22;60282;43.862;18.430;2023-04-03T03:47:50;7.70;99.90
63771;DHT22;60282;43.862;18.430;2023-04-03T03:50:17;7.70;99.90
63771;DHT22;60282;43.862;18.430;2023-04-03T03:52:42;7.70;99.90
63771;DHT22;60282;43.862;18.430;2023-04-03T03:55:08;7.80;99.90
63771;DHT22;60282;43.862;18.430;2023-04-03T03:57:34;7.80;99.90
63771;DHT22;60282;43.862;18.430;2023-04-03T04:00:00;7.80;99.90
63771;DHT22;60282;43.862;18.430;2023-04-03T04:02:26;7.80;99.90
63771;DHT22;60282;43.862;18.430;2023-04-03T04:04:52;7.90;99.90
63771;DHT22;60282;43.862;18.430;2023-04-03T04:07:17;7.90;99.90
63771;DHT22;60282;43.862;18.430;2023-04-03T04:09:43;7.90;99.90
63771;DHT22;60282;43.862;18.430;2023-04-03T04:12:09;8.00;99.90
63771;DHT22;60282;43.862;18.430;2023-04-03T04:14:34;8.00;99.90
63771;DHT22;60282;43.862;18.430;2023-04-03T04:17:00;7.80;99.90
63771;DHT22;60282;43.862;18.430;2023-04-03T04:19:28;7.80;99.90
63771;DHT22;60282;43.862;18.430;2023-04-03T04:21:53;7.80;99.90
63771;DHT22;60282;43.862;18.430;2023-04-03T04:24:19;7.80;99.90
63771;DHT22;60282;43.862;18.430;2023-04-03T04:26:45;7.80;99.90
63771;DHT22;60282;43.862;18.430;2023-04-03T04:31:37;7.80;99.90
63771;DHT22;60282;43.862;18.430;2023-04-03T04:34:06;7.90;99.90
63771;DHT22;60282;43.862;18.430;2023-04-03T04:36:32;9.90;99.90
63771;DHT22;60282;43.862;18.430;2023-04-03T04:39:03;10.30;99.90
63771;DHT22;60282;43.862;18.430;2023-04-03T04:41:29;7.90;99.90
63771;DHT22;60282;43.862;18.430;2023-04-03T04:46:42;7.90;99.90
63771;DHT22;60282;43.862;18.430;2023-04-03T04:49:08;7.80;99.90
63771;DHT22;60282;43.862;18.430;2023-04-03T04:51:36;7.70;99.90
63771;DHT22;60282;43.862;18.430;2023-04-03T04:56:31;7.30;99.90
63771;DHT22;60282;43.862;18.430;2023-04-03T04:59:02;7.20;99.90
63771;DHT22;60282;43.862;18.430;2023-04-03T05:01:28;7.10;99.90
63771;DHT22;60282;43.862;18.430;2023-04-03T05:04:00;7.00;99.90
63771;DHT22;60282;43.862;18.430;2023-04-03T05:06:26;6.90;99.90
63771;DHT22;60282;43.862;18.430;2023-04-03T05:08:51;7.00;99.90
63771;DHT22;60282;43.862;18.430;2023-04-03T05:11:17;7.00;99.90
63771;DHT22;60282;43.862;18.430;2023-04-03T05:13:43;7.00;99.90
63771;DHT22;60282;43.862;18.430;2023-04-03T05:16:09;7.10;99.90
63771;DHT22;60282;43.862;18.430;2023-04-03T05:18:38;7.00;99.90
63771;DHT22;60282;43.862;18.430;2023-04-03T05:21:03;7.00;99.90
63771;DHT22;60282;43.862;18.430;2023-04-03T05:23:31;7.00;99.90
63771;DHT22;60282;43.862;18.430;2023-04-03T05:25:57;7.10;99.90
63771;DHT22;60282;43.862;18.430;2023-04-03T05:28:22;7.20;99.90
63771;DHT22;60282;43.862;18.430;2023-04-03T05:30:56;7.10;99.90
63771;DHT22;60282;43.862;18.430;2023-04-03T05:33:22;8.30;99.90
63771;DHT22;60282;43.862;18.430;2023-04-03T05:35:48;7.00;99.90
63771;DHT22;60282;43.862;18.430;2023-04-03T05:38:14;6.90;99.90
63771;DHT22;60282;43.862;18.430;2023-04-03T05:40:40;6.90;99.90
63771;DHT22;60282;43.862;18.430;2023-04-03T05:43:06;6.80;99.90
63771;DHT22;60282;43.862;18.430;2023-04-03T05:45:32;6.90;99.90
63771;DHT22;60282;43.862;18.430;2023-04-03T05:47:57;6.80;99.90
63771;DHT22;60282;43.862;18.430;2023-04-03T05:50:23;6.80;99.90
63771;DHT22;60282;43.862;18.430;2023-04-03T05:52:51;6.70;99.90
63771;DHT22;60282;43.862;18.430;2023-04-03T05:55:18;6.60;99.90
63771;DHT22;60282;43.862;18.430;2023-04-03T05:57:44;6.50;99.90
63771;DHT22;60282;43.862;18.430;2023-04-03T06:00:13;6.50;99.90
63771;DHT22;60282;43.862;18.430;2023-04-03T06:02:41;6.40;99.90
63771;DHT22;60282;43.862;18.430;2023-04-03T06:05:08;6.30;99.90
63771;DHT22;60282;43.862;18.430;2023-04-03T06:07:34;6.40;99.90
63771;DHT22;60282;43.862;18.430;2023-04-03T06:10:00;6.30;99.90
63771;DHT22;60282;43.862;18.430;2023-04-03T06:12:26;6.40;99.90
63771;DHT22;60282;43.862;18.430;2023-04-03T06:14:55;6.40;99.90
63771;DHT22;60282;43.862;18.430;2023-04-03T06:17:21;6.50;99.90
63771;DHT22;60282;43.862;18.430;2023-04-03T06:19:47;6.60;99.90
63771;DHT22;60282;43.862;18.430;2023-04-03T06:22:13;6.60;99.90
63771;DHT22;60282;43.862;18.430;2023-04-03T06:24:39;6.70;99.90
63771;DHT22;60282;43.862;18.430;2023-04-03T06:27:05;6.70;99.90
63771;DHT22;60282;43.862;18.430;2023-04-03T06:29:31;6.60;99.90
63771;DHT22;60282;43.862;18.430;2023-04-03T06:31:57;6.70;99.90
63771;DHT22;60282;43.862;18.430;2023-04-03T06:34:23;6.80;99.90
63771;DHT22;60282;43.862;18.430;2023-04-03T06:36:49;6.70;99.90
63771;DHT22;60282;43.862;18.430;2023-04-03T06:39:18;6.30;99.90
63771;DHT22;60282;43.862;18.430;2023-04-03T06:41:47;6.30;99.90
63771;DHT22;60282;43.862;18.430;2023-04-03T06:44:13;6.20;99.90
63771;DHT22;60282;43.862;18.430;2023-04-03T06:46:43;4.40;99.90
63771;DHT22;60282;43.862;18.430;2023-04-03T06:51:36;6.00;99.90
63771;DHT22;60282;43.862;18.430;2023-04-03T06:54:04;5.90;99.90
63771;DHT22;60282;43.862;18.430;2023-04-03T06:56:31;5.90;99.90
63771;DHT22;60282;43.862;18.430;2023-04-03T06:58:57;5.90;99.90
63771;DHT22;60282;43.862;18.430;2023-04-03T07:01:24;6.00;99.90
63771;DHT22;60282;43.862;18.430;2023-04-03T07:03:51;6.10;99.90
63771;DHT22;60282;43.862;18.430;2023-04-03T07:06:18;6.10;99.90
63771;DHT22;60282;43.862;18.430;2023-04-03T07:08:45;6.20;99.90
63771;DHT22;60282;43.862;18.430;2023-04-03T07:11:12;6.20;99.90
63771;DHT22;60282;43.862;18.430;2023-04-03T07:13:38;6.20;99.90
63771;DHT22;60282;43.862;18.430;2023-04-03T07:16:05;6.10;99.90
63771;DHT22;60282;43.862;18.430;2023-04-03T07:18:32;6.10;99.90
63771;DHT22;60282;43.862;18.430;2023-04-03T07:20:58;6.20;99.90
63771;DHT22;60282;43.862;18.430;2023-04-03T07:23:24;6.30;99.90
63771;DHT22;60282;43.862;18.430;2023-04-03T07:25:51;5.70;99.90
63771;DHT22;60282;43.862;18.430;2023-04-03T07:28:18;6.40;99.90
63771;DHT22;60282;43.862;18.430;2023-04-03T07:30:51;6.50;99.90
63771;DHT22;60282;43.862;18.430;2023-04-03T07:33:19;6.60;99.90
63771;DHT22;60282;43.862;18.430;2023-04-03T07:35:47;6.60;99.90
63771;DHT22;60282;43.862;18.430;2023-04-03T07:38:13;6.50;99.90
63771;DHT22;60282;43.862;18.430;2023-04-03T07:40:39;6.40;99.90
63771;DHT22;60282;43.862;18.430;2023-04-03T07:43:06;6.40;99.90
63771;DHT22;60282;43.862;18.430;2023-04-03T07:45:34;6.30;99.90
63771;DHT22;60282;43.862;18.430;2023-04-03T07:48:00;6.40;99.90
63771;DHT22;60282;43.862;18.430;2023-04-03T07:50:26;6.30;99.90
63771;DHT22;60282;43.862;18.430;2023-04-03T07:52:52;6.40;99.90
63771;DHT22;60282;43.862;18.430;2023-04-03T07:55:20;6.30;99.90
63771;DHT22;60282;43.862;18.430;2023-04-03T07:57:45;6.30;99.90
63771;DHT22;60282;43.862;18.430;2023-04-03T08:00:12;6.20;99.90
63771;DHT22;60282;43.862;18.430;2023-04-03T08:02:38;6.20;99.90
63771;DHT22;60282;43.862;18.430;2023-04-03T08:05:05;6.30;99.90
63771;DHT22;60282;43.862;18.430;2023-04-03T08:07:30;6.30;99.90
63771;DHT22;60282;43.862;18.430;2023-04-03T08:09:56;6.30;99.90
63771;DHT22;60282;43.862;18.430;2023-04-03T08:12:22;6.30;99.90
63771;DHT22;60282;43.862;18.430;2023-04-03T08:14:48;6.40;99.90
63771;DHT22;60282;43.862;18.430;2023-04-03T08:17:14;6.40;99.90
63771;DHT22;60282;43.862;18.430;2023-04-03T08:19:40;6.50;99.90
63771;DHT22;60282;43.862;18.430;2023-04-03T08:22:06;6.50;99.90
63771;DHT22;60282;43.862;18.430;2023-04-03T08:24:33;6.70;99.90
63771;DHT22;60282;43.862;18.430;2023-04-03T08:26:59;6.50;99.90
63771;DHT22;60282;43.862;18.430;2023-04-03T08:29:25;6.60;99.90
63771;DHT22;60282;43.862;18.430;2023-04-03T08:31:51;6.60;99.90
63771;DHT22;60282;43.862;18.430;2023-04-03T08:34:17;6.60;99.90
63771;DHT22;60282;43.862;18.430;2023-04-03T08:36:43;6.50;99.90
63771;DHT22;60282;43.862;18.430;2023-04-03T08:39:10;6.50;99.90
63771;DHT22;60282;43.862;18.430;2023-04-03T08:41:41;6.40;99.90
63771;DHT22;60282;43.862;18.430;2023-04-03T08:47:18;6.20;99.90
63771;DHT22;60282;43.862;18.430;2023-04-03T08:49:49;6.20;99.90
63771;DHT22;60282;43.862;18.430;2023-04-03T08:54:59;6.10;99.90
63771;DHT22;60282;43.862;18.430;2023-04-03T08:57:39;6.00;99.90
63771;DHT22;60282;43.862;18.430;2023-04-03T09:00:25;6.10;99.90
63771;DHT22;60282;43.862;18.430;2023-04-03T09:02:55;6.10;99.90
63771;DHT22;60282;43.862;18.430;2023-04-03T09:05:39;6.20;99.90
63771;DHT22;60282;43.862;18.430;2023-04-03T09:11:06;6.10;99.90
63771;DHT22;60282;43.862;18.430;2023-04-03T09:13:44;6.10;99.90
63771;DHT22;60282;43.862;18.430;2023-04-03T09:19:14;6.20;99.90
63771;DHT22;60282;43.862;18.430;2023-04-03T09:21:42;5.20;99.90
63771;DHT22;60282;43.862;18.430;2023-04-03T09:24:12;6.30;99.90
63771;DHT22;60282;43.862;18.430;2023-04-03T09:26:51;6.50;99.90
63771;DHT22;60282;43.862;18.430;2023-04-03T09:29:22;6.50;99.90
63771;DHT22;60282;43.862;18.430;2023-04-03T09:31:52;8.30;99.90
63771;DHT22;60282;43.862;18.430;2023-04-03T09:34:47;6.70;99.90
63771;DHT22;60282;43.862;18.430;2023-04-03T09:37:34;6.80;99.90
63771;DHT22;60282;43.862;18.430;2023-04-03T09:40:03;6.90;99.90
63771;DHT22;60282;43.862;18.430;2023-04-03T09:42:30;6.90;99.90
63771;DHT22;60282;43.862;18.430;2023-04-03T09:45:02;6.90;99.90
63771;DHT22;60282;43.862;18.430;2023-04-03T09:47:29;6.90;99.90
63771;DHT22;60282;43.862;18.430;2023-04-03T09:50:34;7.00;99.90
63771;DHT22;60282;43.862;18.430;2023-04-03T09:53:06;7.00;99.90
63771;DHT22;60282;43.862;18.430;2023-04-03T09:55:33;7.00;99.90
63771;DHT22;60282;43.862;18.430;2023-04-03T09:58:25;7.00;99.90
63771;DHT22;60282;43.862;18.430;2023-04-03T10:01:00;6.90;99.90
63771;DHT22;60282;43.862;18.430;2023-04-03T10:03:35;6.90;99.90
63771;DHT22;60282;43.862;18.430;2023-04-03T10:06:03;6.90;99.90
63771;DHT22;60282;43.862;18.430;2023-04-03T10:08:35;6.90;99.90
63771;DHT22;60282;43.862;18.430;2023-04-03T10:11:14;6.90;99.90
63771;DHT22;60282;43.862;18.430;2023-04-03T10:14:10;7.00;99.90
63771;DHT22;60282;43.862;18.430;2023-04-03T10:16:49;7.00;99.90
63771;DHT22;60282;43.862;18.430;2023-04-03T10:19:29;7.00;99.90
63771;DHT22;60282;43.862;18.430;2023-04-03T10:22:15;7.10;99.90
63771;DHT22;60282;43.862;18.430;2023-04-03T10:44:56;7.30;99.90
63771;DHT22;60282;43.862;18.430;2023-04-03T10:50:22;7.20;99.90
63771;DHT22;60282;43.862;18.430;2023-04-03T10:56:01;7.20;99.90
63771;DHT22;60282;43.862;18.430;2023-04-03T10:58:34;7.20;99.90
63771;DHT22;60282;43.862;18.430;2023-04-03T11:01:07;7.20;99.90
63771;DHT22;60282;43.862;18.430;2023-04-03T11:03:42;7.30;99.90
63771;DHT22;60282;43.862;18.430;2023-04-03T11:06:12;7.20;99.90
63771;DHT22;60282;43.862;18.430;2023-04-03T11:09:02;7.20;99.90
63771;DHT22;60282;43.862;18.430;2023-04-03T11:11:37;7.10;99.90
63771;DHT22;60282;43.862;18.430;2023-04-03T11:14:26;7.10;99.90
63771;DHT22;60282;43.862;18.430;2023-04-03T11:17:09;7.10;99.90
63771;DHT22;60282;43.862;18.430;2023-04-03T11:19:57;7.00;99.90
63771;DHT22;60282;43.862;18.430;2023-04-03T11:22:57;6.90;99.90
63771;DHT22;60282;43.862;18.430;2023-04-03T11:25:25;6.70;99.90
63771;DHT22;60282;43.862;18.430;2023-04-03T11:28:02;6.80;99.90
63771;DHT22;60282;43.862;18.430;2023-04-03T11:30:33;6.80;99.90
63771;DHT22;60282;43.862;18.430;2023-04-03T11:35:48;7.10;99.90
63771;DHT22;60282;43.862;18.430;2023-04-03T11:38:41;7.00;99.90
63771;DHT22;60282;43.862;18.430;2023-04-03T11:41:09;7.10;99.90
63771;DHT22;60282;43.862;18.430;2023-04-03T11:44:42;7.10;99.90
63771;DHT22;60282;43.862;18.430;2023-04-03T11:46:54;7.20;99.90
63771;DHT22;60282;43.862;18.430;2023-04-03T11:49:56;7.10;99.90
63771;DHT22;60282;43.862;18.430;2023-04-03T11:58:25;6.80;99.90
63771;DHT22;60282;43.862;18.430;2023-04-03T12:01:08;6.60;99.90
63771;DHT22;60282;43.862;18.430;2023-04-03T12:03:58;6.70;99.90
63771;DHT22;60282;43.862;18.430;2023-04-03T12:08:58;6.50;99.90
63771;DHT22;60282;43.862;18.430;2023-04-03T12:11:29;6.60;99.90
63771;DHT22;60282;43.862;18.430;2023-04-03T12:16:26;6.70;99.90
63771;DHT22;60282;43.862;18.430;2023-04-03T12:26:29;6.60;99.90
63771;DHT22;60282;43.862;18.430;2023-04-03T12:28:56;6.50;99.90
63771;DHT22;60282;43.862;18.430;2023-04-03T12:31:25;6.50;99.90
63771;DHT22;60282;43.862;18.430;2023-04-03T12:34:04;6.60;99.90
63771;DHT22;60282;43.862;18.430;2023-04-03T12:36:53;6.60;99.90
63771;DHT22;60282;43.862;18.430;2023-04-03T12:42:35;6.50;99.90
63771;DHT22;60282;43.862;18.430;2023-04-03T12:45:17;6.50;99.90
63771;DHT22;60282;43.862;18.430;2023-04-03T12:47:45;6.30;99.90
63771;DHT22;60282;43.862;18.430;2023-04-03T12:50:31;6.40;99.90
63771;DHT22;60282;43.862;18.430;2023-04-03T12:53:03;6.50;99.90
63771;DHT22;60282;43.862;18.430;2023-04-03T12:57:56;6.60;99.90
63771;DHT22;60282;43.862;18.430;2023-04-03T13:00:42;6.60;99.90
63771;DHT22;60282;43.862;18.430;2023-04-03T13:03:22;6.50;99.90
63771;DHT22;60282;43.862;18.430;2023-04-03T13:05:50;6.60;99.90
63771;DHT22;60282;43.862;18.430;2023-04-03T13:08:17;6.50;99.90
63771;DHT22;60282;43.862;18.430;2023-04-03T13:10:53;6.50;99.90
63771;DHT22;60282;43.862;18.430;2023-04-03T13:13:19;6.60;99.90
63771;DHT22;60282;43.862;18.430;2023-04-03T13:15:48;6.50;99.90
63771;DHT22;60282;43.862;18.430;2023-04-03T13:18:35;6.50;99.90
63771;DHT22;60282;43.862;18.430;2023-04-03T13:21:07;6.40;99.90
63771;DHT22;60282;43.862;18.430;2023-04-03T13:23:36;6.40;99.90
63771;DHT22;60282;43.862;18.430;2023-04-03T13:26:04;6.70;99.90
63771;DHT22;60282;43.862;18.430;2023-04-03T13:28:32;6.30;99.90
63771;DHT22;60282;43.862;18.430;2023-04-03T13:33:54;6.20;99.90
63771;DHT22;60282;43.862;18.430;2023-04-03T13:36:35;6.20;99.90
63771;DHT22;60282;43.862;18.430;2023-04-03T13:41:49;6.80;99.90
63771;DHT22;60282;43.862;18.430;2023-04-03T13:44:32;5.80;99.90
63771;DHT22;60282;43.862;18.430;2023-04-03T13:47:17;6.00;99.90
63771;DHT22;60282;43.862;18.430;2023-04-03T13:49:46;5.80;99.90
63771;DHT22;60282;43.862;18.430;2023-04-03T13:57:52;5.70;99.90
63771;DHT22;60282;43.862;18.430;2023-04-03T14:00:29;5.70;99.90
63771;DHT22;60282;43.862;18.430;2023-04-03T14:02:56;5.70;99.90
63771;DHT22;60282;43.862;18.430;2023-04-03T14:05:23;5.70;99.90
63771;DHT22;60282;43.862;18.430;2023-04-03T14:07:51;5.60;99.90
63771;DHT22;60282;43.862;18.430;2023-04-03T14:10:17;5.60;99.90
63771;DHT22;60282;43.862;18.430;2023-04-03T14:12:43;5.70;99.90
63771;DHT22;60282;43.862;18.430;2023-04-03T14:15:20;5.60;99.90
63771;DHT22;60282;43.862;18.430;2023-04-03T14:17:46;6.10;99.90
63771;DHT22;60282;43.862;18.430;2023-04-03T14:20:24;5.50;99.90
63771;DHT22;60282;43.862;18.430;2023-04-03T14:22:50;5.50;99.90
63771;DHT22;60282;43.862;18.430;2023-04-03T14:25:18;5.40;99.90
63771;DHT22;60282;43.862;18.430;2023-04-03T14:27:47;6.00;99.90
63771;DHT22;60282;43.862;18.430;2023-04-03T14:30:20;5.70;99.90
63771;DHT22;60282;43.862;18.430;2023-04-03T14:35:17;5.40;99.90
63771;DHT22;60282;43.862;18.430;2023-04-03T14:37:46;5.40;99.90
63771;DHT22;60282;43.862;18.430;2023-04-03T14:40:17;5.70;99.90
63771;DHT22;60282;43.862;18.430;2023-04-03T14:42:44;5.60;99.90
63771;DHT22;60282;43.862;18.430;2023-04-03T14:45:16;5.50;99.90
63771;DHT22;60282;43.862;18.430;2023-04-03T14:47:52;5.50;99.90
63771;DHT22;60282;43.862;18.430;2023-04-03T14:50:32;5.50;99.90
63771;DHT22;60282;43.862;18.430;2023-04-03T14:53:02;6.00;99.90
63771;DHT22;60282;43.862;18.430;2023-04-03T14:57:55;5.60;99.90
63771;DHT22;60282;43.862;18.430;2023-04-03T15:00:24;5.60;99.90
63771;DHT22;60282;43.862;18.430;2023-04-03T15:02:53;5.50;99.90
63771;DHT22;60282;43.862;18.430;2023-04-03T15:05:19;5.00;99.90
63771;DHT22;60282;43.862;18.430;2023-04-03T15:07:57;5.40;99.90
63771;DHT22;60282;43.862;18.430;2023-04-03T15:10:30;5.30;99.90
63771;DHT22;60282;43.862;18.430;2023-04-03T15:13:01;5.30;99.90
63771;DHT22;60282;43.862;18.430;2023-04-03T15:15:30;5.30;99.90
63771;DHT22;60282;43.862;18.430;2023-04-03T15:17:56;5.10;99.90
63771;DHT22;60282;43.862;18.430;2023-04-03T15:20:27;5.10;99.90
63771;DHT22;60282;43.862;18.430;2023-04-03T15:22:57;5.00;99.90
63771;DHT22;60282;43.862;18.430;2023-04-03T15:25:26;5.00;99.90
63771;DHT22;60282;43.862;18.430;2023-04-03T15:27:54;4.90;99.90
63771;DHT22;60282;43.862;18.430;2023-04-03T15:32:47;5.10;99.90
63771;DHT22;60282;43.862;18.430;2023-04-03T15:35:14;5.50;99.90
63771;DHT22;60282;43.862;18.430;2023-04-03T15:37:40;5.10;99.90
63771;DHT22;60282;43.862;18.430;2023-04-03T15:40:06;5.00;99.90
63771;DHT22;60282;43.862;18.430;2023-04-03T15:42:35;5.00;99.90
63771;DHT22;60282;43.862;18.430;2023-04-03T15:45:00;4.90;99.90
63771;DHT22;60282;43.862;18.430;2023-04-03T15:47:27;5.00;99.90
63771;DHT22;60282;43.862;18.430;2023-04-03T15:49:54;4.90;99.90
63771;DHT22;60282;43.862;18.430;2023-04-03T15:54:46;4.90;99.90
63771;DHT22;60282;43.862;18.430;2023-04-03T15:57:12;5.00;99.90
63771;DHT22;60282;43.862;18.430;2023-04-03T15:59:38;5.10;99.90
63771;DHT22;60282;43.862;18.430;2023-04-03T16:02:06;5.10;99.90
63771;DHT22;60282;43.862;18.430;2023-04-03T16:04:33;5.20;99.90
63771;DHT22;60282;43.862;18.430;2023-04-03T16:07:04;5.20;99.90
63771;DHT22;60282;43.862;18.430;2023-04-03T16:09:32;5.10;99.90
63771;DHT22;60282;43.862;18.430;2023-04-03T16:11:59;5.10;99.90
63771;DHT22;60282;43.862;18.430;2023-04-03T16:14:28;5.10;99.90
63771;DHT22;60282;43.862;18.430;2023-04-03T16:16:57;5.10;99.90
63771;DHT22;60282;43.862;18.430;2023-04-03T16:19:24;5.10;99.90
63771;DHT22;60282;43.862;18.430;2023-04-03T16:21:54;5.10;99.90
63771;DHT22;60282;43.862;18.430;2023-04-03T16:26:47;4.90;99.90
63771;DHT22;60282;43.862;18.430;2023-04-03T16:29:13;4.90;99.90
63771;DHT22;60282;43.862;18.430;2023-04-03T16:31:39;4.90;99.90
63771;DHT22;60282;43.862;18.430;2023-04-03T16:34:06;4.90;99.90
63771;DHT22;60282;43.862;18.430;2023-04-03T16:36:31;4.90;99.90
63771;DHT22;60282;43.862;18.430;2023-04-03T16:39:00;4.80;99.90
63771;DHT22;60282;43.862;18.430;2023-04-03T16:41:26;4.90;99.90
63771;DHT22;60282;43.862;18.430;2023-04-03T16:43:52;5.20;99.90
63771;DHT22;60282;43.862;18.430;2023-04-03T16:46:20;5.00;99.90
63771;DHT22;60282;43.862;18.430;2023-04-03T16:48:46;5.00;99.90
63771;DHT22;60282;43.862;18.430;2023-04-03T16:51:16;5.00;99.90
63771;DHT22;60282;43.862;18.430;2023-04-03T16:53:41;5.10;99.90
63771;DHT22;60282;43.862;18.430;2023-04-03T16:56:07;5.10;99.90
63771;DHT22;60282;43.862;18.430;2023-04-03T16:58:33;4.60;99.90
63771;DHT22;60282;43.862;18.430;2023-04-03T17:01:07;5.00;99.90
63771;DHT22;60282;43.862;18.430;2023-04-03T17:03:33;5.10;99.90
63771;DHT22;60282;43.862;18.430;2023-04-03T17:06:00;4.90;99.90
63771;DHT22;60282;43.862;18.430;2023-04-03T17:08:25;5.00;99.90
63771;DHT22;60282;43.862;18.430;2023-04-03T17:10:51;4.90;99.90
63771;DHT22;60282;43.862;18.430;2023-04-03T17:13:21;4.90;99.90
63771;DHT22;60282;43.862;18.430;2023-04-03T17:15:47;4.90;99.90
63771;DHT22;60282;43.862;18.430;2023-04-03T17:18:16;4.90;99.90
63771;DHT22;60282;43.862;18.430;2023-04-03T17:20:49;5.40;99.90
63771;DHT22;60282;43.862;18.430;2023-04-03T17:23:15;4.90;99.90
63771;DHT22;60282;43.862;18.430;2023-04-03T17:25:47;4.80;99.90
63771;DHT22;60282;43.862;18.430;2023-04-03T17:28:15;4.80;99.90
63771;DHT22;60282;43.862;18.430;2023-04-03T17:30:45;4.80;99.90
63771;DHT22;60282;43.862;18.430;2023-04-03T17:33:11;4.70;99.90
63771;DHT22;60282;43.862;18.430;2023-04-03T17:35:40;4.80;99.90
63771;DHT22;60282;43.862;18.430;2023-04-03T17:38:06;4.80;99.90
63771;DHT22;60282;43.862;18.430;2023-04-03T17:40:31;4.70;99.90
63771;DHT22;60282;43.862;18.430;2023-04-03T17:42:57;4.60;99.90
63771;DHT22;60282;43.862;18.430;2023-04-03T17:45:23;4.50;99.90